Time;durP1;ratioP1;P1;durP2;ratioP2;P2;SDS_P1;SDS_P2;PMS_P1;PMS_P2;Temp;Humidity;BMP_temperature;BMP_pressure;BME280_temperature;BME280_humidity;BME280_pressure;Samples;Min_cycle;Max_cycle;Signal;HPM_P1;HPM_P2
2024/01/03 00:01:26;;;;;;;3.10;1.75;;;4.50;70.90;;;;;;4988658;28;114234;-80
2024/01/03 00:03:57;;;;;;;3.63;1.67;;;4.50;70.70;;;;;;4988175;28;114287;-81
2024/01/03 00:06:32;;;;;;;3.70;1.60;;;4.50;70.60;;;;;;4985815;28;115174;-81
2024/01/03 00:09:01;;;;;;;3.65;1.55;;;4.50;70.70;;;;;;4986106;28;114648;-81
2024/01/03 00:11:32;;;;;;;2.30;1.20;;;4.50;70.60;;;;;;4987674;28;114550;-81
2024/01/03 00:14:22;;;;;;;2.17;1.13;;;4.50;70.70;;;;;;4986711;28;114347;-81
2024/01/03 00:16:49;;;;;;;1.83;1.00;;;4.50;70.60;;;;;;4984843;28;115022;-81
2024/01/03 00:19:21;;;;;;;2.10;1.10;;;4.40;70.70;;;;;;4986652;28;114627;-82
2024/01/03 00:21:49;;;;;;;2.60;1.10;;;4.50;70.80;;;;;;4970265;28;114312;-80
2024/01/03 00:24:22;;;;;;;3.00;1.20;;;4.50;70.70;;;;;;4987538;28;114597;-82
2024/01/03 00:27:06;;;;;;;1.88;1.20;;;4.50;70.90;;;;;;4966575;28;115632;-82
2024/01/03 00:29:58;;;;;;;1.92;0.93;;;4.60;70.90;;;;;;4967265;28;114614;-82
2024/01/03 00:32:25;;;;;;;2.58;1.23;;;4.60;70.90;;;;;;4968528;28;114589;-81
2024/01/03 00:34:53;;;;;;;4.93;1.20;;;4.60;71.00;;;;;;4952783;28;114548;-80
2024/01/03 00:37:29;;;;;;;1.92;1.00;;;4.50;71.00;;;;;;4967427;28;115575;-79
2024/01/03 00:39:58;;;;;;;2.30;1.30;;;4.50;71.20;;;;;;4967708;28;114662;-80
2024/01/03 00:42:25;;;;;;;2.25;1.20;;;4.60;71.20;;;;;;4968013;28;114459;-80
2024/01/03 00:44:52;;;;;;;2.67;1.35;;;4.60;71.20;;;;;;4968698;28;114300;-81
2024/01/03 00:47:20;;;;;;;4.78;1.65;;;4.60;71.10;;;;;;4984004;28;115016;-81
2024/01/03 00:49:47;;;;;;;4.22;1.92;;;4.70;71.10;;;;;;4966775;28;116584;-81
2024/01/03 00:52:15;;;;;;;5.07;2.10;;;4.70;71.20;;;;;;4952158;28;114495;-82
2024/01/03 00:54:42;;;;;;;3.67;2.00;;;4.80;71.10;;;;;;4959755;28;114689;-81
2024/01/03 00:57:10;;;;;;;3.53;2.00;;;4.80;71.00;;;;;;5004553;28;113847;-81
2024/01/03 00:59:37;;;;;;;4.10;2.30;;;4.90;71.10;;;;;;4951398;28;114785;-81
2024/01/03 01:02:07;;;;;;;5.78;2.30;;;4.90;71.20;;;;;;4932159;28;114239;-81
2024/01/03 01:04:39;;;;;;;5.07;2.08;;;4.90;71.10;;;;;;4957728;28;114627;-81
2024/01/03 01:07:06;;;;;;;4.60;2.50;;;5.00;71.10;;;;;;4947062;28;115287;-81
2024/01/03 01:09:33;;;;;;;7.30;3.25;;;5.00;71.10;;;;;;4946103;28;114936;-81
2024/01/03 01:12:00;;;;;;;8.05;3.00;;;5.00;71.10;;;;;;4930353;28;114555;-81
2024/01/03 01:14:28;;;;;;;6.32;3.58;;;5.00;71.00;;;;;;4946227;28;114500;-81
2024/01/03 01:16:56;;;;;;;6.78;3.40;;;5.00;71.00;;;;;;4946194;28;116532;-81
2024/01/03 01:19:23;;;;;;;8.73;3.03;;;5.00;71.00;;;;;;4946569;28;114716;-80
2024/01/03 01:21:51;;;;;;;7.57;3.60;;;5.10;71.10;;;;;;4945887;28;114240;-80
2024/01/03 01:24:18;;;;;;;7.47;3.78;;;5.00;71.10;;;;;;4947682;28;114152;-80
2024/01/03 01:26:46;;;;;;;8.25;4.15;;;5.00;71.10;;;;;;4941464;28;116309;-80
2024/01/03 01:29:13;;;;;;;8.55;3.88;;;5.00;71.10;;;;;;4984016;28;115183;-81
2024/01/03 01:31:41;;;;;;;5.88;3.03;;;5.10;71.10;;;;;;4984930;28;114160;-81
2024/01/03 01:34:08;;;;;;;4.90;2.65;;;5.10;71.10;;;;;;4968926;28;114477;-81
2024/01/03 01:36:36;;;;;;;4.38;2.05;;;5.10;71.10;;;;;;4984204;28;118053;-81
2024/01/03 01:39:03;;;;;;;7.00;2.33;;;5.10;71.10;;;;;;4983947;28;115977;-81
2024/01/03 01:41:31;;;;;;;6.80;2.20;;;5.20;71.00;;;;;;4985022;28;114610;-81
2024/01/03 01:43:58;;;;;;;5.63;2.05;;;5.20;70.90;;;;;;4985056;28;114189;-81
2024/01/03 01:46:26;;;;;;;4.22;1.45;;;5.20;70.80;;;;;;4984209;28;115114;-81
2024/01/03 01:48:54;;;;;;;4.63;1.63;;;5.20;70.80;;;;;;4967823;28;114804;-81
2024/01/03 01:51:22;;;;;;;3.45;1.00;;;5.20;70.70;;;;;;4984916;28;114711;-81
2024/01/03 01:53:49;;;;;;;2.00;1.08;;;5.20;70.70;;;;;;4984340;28;114426;-81
2024/01/03 01:56:16;;;;;;;2.90;1.40;;;5.20;70.80;;;;;;4983495;28;115041;-81
2024/01/03 01:58:44;;;;;;;3.90;1.40;;;5.20;71.00;;;;;;4967613;28;117903;-81
2024/01/03 02:01:11;;;;;;;3.85;1.58;;;5.20;71.10;;;;;;4952388;28;114390;-81
2024/01/03 02:03:38;;;;;;;4.85;1.95;;;5.20;71.20;;;;;;4984965;28;114449;-81
2024/01/03 02:06:08;;;;;;;4.30;2.20;;;5.20;71.30;;;;;;4983863;28;115098;-81
2024/01/03 02:08:36;;;;;;;4.97;2.63;;;5.30;71.40;;;;;;4951019;28;114636;-81
2024/01/03 02:11:04;;;;;;;5.05;2.72;;;5.30;71.60;;;;;;4984483;28;114379;-81
2024/01/03 02:13:31;;;;;;;5.57;2.13;;;5.40;71.60;;;;;;4985227;28;114423;-81
2024/01/03 02:15:59;;;;;;;5.53;2.22;;;5.40;71.50;;;;;;4984620;28;116667;-81
2024/01/03 02:18:27;;;;;;;6.25;2.22;;;5.50;71.50;;;;;;4951533;28;115049;-81
2024/01/03 02:20:56;;;;;;;8.43;3.05;;;5.50;71.40;;;;;;4984101;28;114352;-81
2024/01/03 02:23:23;;;;;;;6.43;3.05;;;5.50;71.40;;;;;;4984316;28;114266;-82
2024/01/03 02:25:52;;;;;;;6.57;3.53;;;5.50;71.40;;;;;;4983210;28;116194;-81
2024/01/03 02:28:20;;;;;;;9.13;4.20;;;5.50;71.60;;;;;;4966502;28;115200;-81
2024/01/03 02:30:48;;;;;;;9.77;4.65;;;5.60;71.70;;;;;;4983848;28;114511;-81
2024/01/03 02:33:15;;;;;;;8.77;3.72;;;5.60;71.70;;;;;;4985620;28;114666;-81
2024/01/03 02:35:43;;;;;;;5.50;2.72;;;5.60;71.80;;;;;;4966989;28;115203;-81
2024/01/03 02:38:11;;;;;;;7.72;3.30;;;5.70;71.90;;;;;;4985850;28;115616;-81
2024/01/03 02:40:40;;;;;;;4.35;1.80;;;5.70;72.00;;;;;;4971615;28;114302;-80
2024/01/03 02:43:07;;;;;;;4.00;1.80;;;5.80;72.20;;;;;;4989571;28;114350;-80
2024/01/03 02:45:35;;;;;;;2.75;1.08;;;5.90;72.20;;;;;;5021056;28;119066;-80
2024/01/03 02:48:02;;;;;;;2.75;0.93;;;6.00;72.30;;;;;;5023214;28;114122;-80
2024/01/03 02:50:30;;;;;;;3.03;1.20;;;6.20;72.30;;;;;;5014138;28;114111;-80
2024/01/03 02:52:57;;;;;;;3.40;1.23;;;6.30;72.30;;;;;;5009336;28;114710;-80
2024/01/03 02:55:24;;;;;;;2.63;0.82;;;6.40;72.30;;;;;;5008267;28;117504;-79
2024/01/03 02:57:52;;;;;;;3.45;1.10;;;6.50;72.30;;;;;;4990749;28;114613;-80
2024/01/03 03:00:19;;;;;;;2.35;0.70;;;6.60;72.30;;;;;;5006647;28;114553;-81
2024/01/03 03:02:47;;;;;;;2.50;0.88;;;6.70;72.30;;;;;;5008105;28;114417;-81
2024/01/03 03:05:14;;;;;;;2.17;0.70;;;6.80;72.30;;;;;;4990477;28;115158;-81
2024/01/03 03:07:41;;;;;;;3.05;1.10;;;6.90;72.20;;;;;;5006793;28;114793;-80
2024/01/03 03:10:11;;;;;;;3.05;1.15;;;6.90;72.20;;;;;;5008304;28;114278;-80
2024/01/03 03:12:39;;;;;;;2.83;0.80;;;7.00;72.10;;;;;;4990727;28;114567;-80
2024/01/03 03:15:07;;;;;;;2.17;0.90;;;7.00;72.10;;;;;;5005576;28;115282;-80
2024/01/03 03:17:34;;;;;;;1.95;0.70;;;7.10;72.00;;;;;;4989971;28;114567;-80
2024/01/03 03:20:02;;;;;;;2.03;0.95;;;7.20;71.90;;;;;;4974513;28;114447;-80
2024/01/03 03:22:29;;;;;;;1.23;0.65;;;7.20;71.70;;;;;;5008301;28;114497;-80
2024/01/03 03:24:57;;;;;;;2.25;0.82;;;7.20;71.70;;;;;;4989777;28;115110;-80
2024/01/03 03:27:24;;;;;;;3.33;1.00;;;7.30;71.70;;;;;;5005641;28;115123;-81
2024/01/03 03:29:52;;;;;;;2.80;1.00;;;7.30;71.60;;;;;;5008347;28;114175;-82
2024/01/03 03:32:19;;;;;;;1.20;0.60;;;7.30;71.60;;;;;;5008346;28;114241;-81
2024/01/03 03:34:47;;;;;;;2.10;0.90;;;7.40;71.70;;;;;;5005638;28;115086;-81
2024/01/03 03:37:14;;;;;;;1.98;0.70;;;7.30;71.70;;;;;;5007284;28;115461;-81
2024/01/03 03:39:42;;;;;;;5.40;2.10;;;7.40;71.80;;;;;;5006781;28;114435;-81
2024/01/03 03:42:09;;;;;;;6.35;2.30;;;7.40;71.70;;;;;;4990112;28;114347;-81
2024/01/03 03:44:40;;;;;;;5.25;2.10;;;7.40;71.60;;;;;;5005988;28;115098;-81
2024/01/03 03:47:08;;;;;;;4.28;1.70;;;7.40;71.60;;;;;;5007080;28;114349;-80
2024/01/03 03:49:35;;;;;;;4.82;1.88;;;7.40;71.60;;;;;;5006032;28;114366;-82
2024/01/03 03:52:03;;;;;;;5.47;2.10;;;7.40;71.60;;;;;;5008269;28;114728;-82
2024/01/03 03:54:30;;;;;;;5.65;2.25;;;7.40;71.60;;;;;;5007106;28;115103;-81
2024/01/03 03:56:57;;;;;;;4.90;2.38;;;7.40;71.60;;;;;;5007195;28;114994;-82
2024/01/03 03:59:25;;;;;;;4.70;1.55;;;7.50;71.80;;;;;;5007405;28;114358;-81
2024/01/03 04:01:52;;;;;;;4.30;2.00;;;7.50;71.80;;;;;;5007724;28;114307;-80
2024/01/03 04:04:20;;;;;;;3.58;1.48;;;7.50;71.80;;;;;;5006804;28;115079;-81
2024/01/03 04:06:47;;;;;;;5.00;1.98;;;7.40;71.90;;;;;;4988992;28;114808;-80
2024/01/03 04:09:16;;;;;;;5.63;1.95;;;7.50;72.00;;;;;;4989900;28;114208;-80
2024/01/03 04:11:43;;;;;;;5.00;2.28;;;7.60;72.00;;;;;;5006634;28;114552;-81
2024/01/03 04:14:11;;;;;;;7.68;2.58;;;7.50;71.90;;;;;;5006735;28;115022;-81
2024/01/03 04:16:38;;;;;;;5.07;2.05;;;7.60;71.90;;;;;;4989159;28;114626;-81
2024/01/03 04:19:06;;;;;;;5.78;2.40;;;7.60;71.90;;;;;;5006368;28;114520;-81
2024/01/03 04:21:33;;;;;;;5.43;2.20;;;7.60;71.80;;;;;;5006322;28;114311;-81
2024/01/03 04:24:01;;;;;;;7.05;2.55;;;7.60;71.70;;;;;;4988470;28;115096;-81
2024/01/03 04:26:28;;;;;;;5.47;2.20;;;7.70;71.60;;;;;;5006245;28;114834;-81
2024/01/03 04:28:56;;;;;;;7.22;2.83;;;7.70;71.60;;;;;;5006249;28;114544;-84
2024/01/03 04:31:24;;;;;;;5.38;2.20;;;7.70;71.50;;;;;;4998269;28;114232;-81
2024/01/03 04:33:52;;;;;;;5.65;2.42;;;7.70;71.40;;;;;;5007988;28;115398;-81
2024/01/03 04:36:20;;;;;;;6.13;2.58;;;7.70;71.40;;;;;;5015129;28;114015;-80
2024/01/03 04:38:47;;;;;;;7.18;2.83;;;7.70;71.20;;;;;;5015574;28;114594;-81
2024/01/03 04:41:16;;;;;;;5.35;2.30;;;7.70;71.20;;;;;;4991807;28;114576;-81
2024/01/03 04:43:43;;;;;;;6.93;3.22;;;7.70;71.20;;;;;;5005864;28;115067;-81
2024/01/03 04:46:11;;;;;;;9.65;3.33;;;7.70;71.20;;;;;;5005148;28;115099;-81
2024/01/03 04:48:38;;;;;;;7.82;2.97;;;7.70;71.10;;;;;;5005394;28;114682;-81
2024/01/03 04:51:06;;;;;;;5.80;2.53;;;7.70;71.00;;;;;;5007302;28;114207;-81
2024/01/03 04:53:33;;;;;;;5.57;2.20;;;7.70;71.00;;;;;;5005363;28;115055;-81
2024/01/03 04:56:01;;;;;;;7.72;3.03;;;7.70;71.00;;;;;;5006005;28;116926;-81
2024/01/03 04:58:28;;;;;;;5.47;2.70;;;7.70;71.00;;;;;;5005883;28;114720;-81
2024/01/03 05:00:55;;;;;;;5.60;2.70;;;7.70;70.90;;;;;;4988830;28;114742;-82
2024/01/03 05:03:23;;;;;;;6.97;2.97;;;7.70;70.80;;;;;;5004720;28;115555;-81
2024/01/03 05:05:50;;;;;;;6.30;2.80;;;7.70;70.80;;;;;;5006192;28;115195;-81
2024/01/03 05:08:17;;;;;;;4.30;2.08;;;7.70;70.70;;;;;;5005634;28;114232;-80
2024/01/03 05:10:45;;;;;;;6.13;2.63;;;7.80;70.60;;;;;;5006600;28;114359;-81
2024/01/03 05:13:12;;;;;;;3.80;1.55;;;7.80;70.50;;;;;;5003706;28;115233;-81
2024/01/03 05:15:39;;;;;;;4.15;2.00;;;7.80;70.40;;;;;;5004552;28;114595;-80
2024/01/03 05:18:07;;;;;;;4.00;1.50;;;7.90;70.50;;;;;;5006281;28;114240;-81
2024/01/03 05:20:35;;;;;;;4.13;2.22;;;7.80;70.30;;;;;;5006650;28;114418;-81
2024/01/03 05:23:03;;;;;;;3.53;1.40;;;7.80;70.30;;;;;;5004486;28;115173;-81
2024/01/03 05:25:30;;;;;;;4.30;1.60;;;7.80;70.20;;;;;;5004402;28;114571;-81
2024/01/03 05:27:57;;;;;;;3.83;1.45;;;7.80;70.10;;;;;;5005735;28;114436;-81
2024/01/03 05:30:26;;;;;;;2.70;1.30;;;7.80;70.10;;;;;;5006831;28;114663;-81
2024/01/03 05:32:56;;;;;;;3.90;1.52;;;7.80;70.00;;;;;;5005264;28;116104;-80
2024/01/03 05:35:24;;;;;;;3.42;1.85;;;7.90;70.00;;;;;;5004210;28;114626;-80
2024/01/03 05:37:52;;;;;;;2.97;1.15;;;7.90;69.90;;;;;;4988274;28;114626;-81
2024/01/03 05:40:19;;;;;;;2.50;1.35;;;7.90;69.90;;;;;;5006375;28;114377;-81
2024/01/03 05:42:48;;;;;;;2.25;0.90;;;7.90;69.80;;;;;;4987816;28;115247;-81
2024/01/03 05:45:16;;;;;;;1.83;0.88;;;7.90;69.70;;;;;;4955703;28;115223;-81
2024/01/03 05:47:43;;;;;;;1.80;0.90;;;8.00;69.60;;;;;;5005524;28;114597;-80
2024/01/03 05:50:12;;;;;;;1.58;0.80;;;7.90;69.60;;;;;;5005002;28;114501;-81
2024/01/03 05:52:40;;;;;;;1.92;0.95;;;7.90;69.50;;;;;;5004141;28;115229;-81
2024/01/03 05:55:07;;;;;;;1.42;0.85;;;7.90;69.50;;;;;;4987916;28;114734;-82
2024/01/03 05:57:35;;;;;;;1.65;0.95;;;7.90;69.40;;;;;;5006131;28;114390;-82
2024/01/03 06:00:04;;;;;;;1.70;0.88;;;8.00;69.30;;;;;;5005021;28;114461;-82
2024/01/03 06:02:32;;;;;;;2.00;0.90;;;8.00;69.30;;;;;;4987262;28;115557;-82
2024/01/03 06:05:00;;;;;;;1.92;1.00;;;8.00;69.20;;;;;;4987419;28;114945;-82
2024/01/03 06:07:27;;;;;;;2.13;0.95;;;8.00;69.10;;;;;;5004715;28;114481;-82
2024/01/03 06:09:55;;;;;;;2.08;1.10;;;8.00;69.00;;;;;;4999613;28;115877;-82
2024/01/03 06:12:23;;;;;;;1.75;0.90;;;8.00;68.90;;;;;;4990548;28;117748;-81
2024/01/03 06:14:51;;;;;;;2.60;1.35;;;8.00;68.80;;;;;;5028584;27;114543;-82
2024/01/03 06:17:18;;;;;;;7.13;3.22;;;8.10;68.70;;;;;;5017984;28;114464;-82
2024/01/03 06:19:46;;;;;;;3.72;1.88;;;8.10;68.60;;;;;;5015212;28;114821;-82
2024/01/03 06:22:13;;;;;;;4.53;1.92;;;8.10;68.60;;;;;;4980159;28;116019;-83
2024/01/03 06:24:40;;;;;;;6.10;1.75;;;8.10;68.60;;;;;;5015623;27;114850;-82
2024/01/03 06:27:11;;;;;;;4.78;1.80;;;8.20;68.40;;;;;;4984089;28;114655;-81
2024/01/03 06:29:42;;;;;;;4.20;1.30;;;8.10;68.30;;;;;;5007150;28;114198;-82
2024/01/03 06:32:14;;;;;;;7.20;2.40;;;8.20;68.30;;;;;;5020728;28;117676;-82
2024/01/03 06:34:41;;;;;;;5.47;1.70;;;8.20;68.20;;;;;;5020603;28;114783;-81
2024/01/03 06:37:09;;;;;;;2.50;0.90;;;8.20;68.20;;;;;;5015831;28;114531;-82
2024/01/03 06:39:36;;;;;;;5.20;1.70;;;8.20;68.20;;;;;;4997545;28;114870;-83
2024/01/03 06:42:04;;;;;;;6.03;2.45;;;8.20;68.10;;;;;;5015551;28;115111;-83
2024/01/03 06:44:32;;;;;;;4.03;1.88;;;8.20;68.10;;;;;;5012325;27;115251;-83
2024/01/03 06:46:59;;;;;;;3.45;1.20;;;8.20;68.00;;;;;;5015468;28;114506;-82
2024/01/03 06:49:27;;;;;;;4.63;1.33;;;8.20;68.00;;;;;;5018975;28;114764;-83
2024/01/03 06:51:57;;;;;;;3.85;1.70;;;8.20;68.00;;;;;;5018668;28;115074;-83
2024/01/03 06:54:24;;;;;;;2.40;1.10;;;8.20;67.90;;;;;;5008739;28;114603;-82
2024/01/03 06:56:52;;;;;;;3.83;1.20;;;8.20;67.80;;;;;;5018702;28;114733;-83
2024/01/03 06:59:21;;;;;;;2.65;1.08;;;8.20;67.70;;;;;;5001599;27;114608;-83
2024/01/03 07:01:49;;;;;;;2.13;1.10;;;8.20;67.70;;;;;;5014594;28;115091;-82
2024/01/03 07:04:16;;;;;;;2.53;1.00;;;8.20;67.70;;;;;;5033314;27;115158;-82
2024/01/03 07:06:44;;;;;;;2.30;1.13;;;8.20;67.60;;;;;;4996804;28;114493;-82
2024/01/03 07:09:14;;;;;;;2.65;1.15;;;8.30;67.60;;;;;;5016641;28;114865;-81
2024/01/03 07:11:41;;;;;;;3.90;1.15;;;8.20;67.50;;;;;;5017202;28;115017;-82
2024/01/03 07:14:12;;;;;;;3.10;1.15;;;8.20;67.50;;;;;;5007700;28;114613;-81
2024/01/03 07:16:40;;;;;;;2.40;1.00;;;8.30;67.50;;;;;;5008466;28;114287;-80
2024/01/03 07:19:07;;;;;;;2.58;1.13;;;8.20;67.40;;;;;;5007511;28;114364;-82
2024/01/03 07:21:35;;;;;;;3.70;1.40;;;8.30;67.40;;;;;;4989884;28;115642;-80
2024/01/03 07:24:02;;;;;;;2.85;1.40;;;8.30;67.30;;;;;;5005144;28;115162;-80
2024/01/03 07:26:30;;;;;;;2.38;1.17;;;8.30;67.30;;;;;;4990673;28;114306;-81
2024/01/03 07:28:57;;;;;;;3.80;1.23;;;8.30;67.30;;;;;;4988084;28;114501;-81
2024/01/03 07:31:27;;;;;;;3.95;1.55;;;8.30;67.10;;;;;;4986212;28;118283;-81
2024/01/03 07:33:54;;;;;;;3.45;1.30;;;8.40;67.10;;;;;;4970887;28;115190;-80
2024/01/03 07:36:22;;;;;;;3.78;1.25;;;8.40;67.10;;;;;;4986925;28;114563;-81
2024/01/03 07:38:49;;;;;;;4.45;2.08;;;8.40;67.00;;;;;;4987035;28;114370;-80
2024/01/03 07:41:20;;;;;;;4.70;2.75;;;8.30;66.90;;;;;;4997132;28;115232;-81
2024/01/03 07:43:48;;;;;;;3.63;2.00;;;8.40;66.90;;;;;;5007807;28;118046;-81
2024/01/03 07:46:16;;;;;;;2.60;1.10;;;8.40;66.80;;;;;;5025121;28;114547;-81
2024/01/03 07:48:44;;;;;;;3.40;1.40;;;8.40;66.80;;;;;;5013673;27;114510;-82
2024/01/03 07:51:12;;;;;;;3.22;1.40;;;8.40;66.70;;;;;;5006058;28;117036;-80
2024/01/03 07:53:39;;;;;;;2.08;0.90;;;8.40;66.70;;;;;;5016103;28;114765;-80
2024/01/03 07:56:08;;;;;;;3.20;1.77;;;8.40;66.60;;;;;;5015746;28;114213;-81
2024/01/03 07:58:35;;;;;;;3.05;1.40;;;8.40;66.40;;;;;;5002105;27;114984;-80
2024/01/03 08:01:03;;;;;;;4.40;1.90;;;8.40;66.40;;;;;;5001259;28;117563;-81
2024/01/03 08:03:31;;;;;;;3.30;1.60;;;8.50;66.40;;;;;;5017468;27;114699;-84
2024/01/03 08:05:59;;;;;;;3.83;1.67;;;8.50;66.30;;;;;;5004025;28;114697;-81
2024/01/03 08:08:32;;;;;;;2.75;1.40;;;8.50;66.30;;;;;;5002534;27;114742;-82
2024/01/03 08:11:00;;;;;;;2.65;1.20;;;8.50;66.20;;;;;;4994847;28;115246;-81
2024/01/03 08:13:27;;;;;;;2.63;1.20;;;8.60;66.20;;;;;;4983959;28;117919;-81
2024/01/03 08:15:54;;;;;;;2.45;1.10;;;8.60;66.10;;;;;;5006633;28;114617;-82
2024/01/03 08:18:22;;;;;;;2.90;1.10;;;8.60;66.00;;;;;;4985742;28;115150;-82
2024/01/03 08:20:53;;;;;;;2.60;1.10;;;8.70;65.90;;;;;;4985120;28;115083;-81
2024/01/03 08:23:22;;;;;;;2.90;1.40;;;8.70;65.90;;;;;;4985786;28;115705;-81
2024/01/03 08:25:49;;;;;;;3.50;1.25;;;8.70;65.80;;;;;;4992468;28;114473;-82
2024/01/03 08:28:16;;;;;;;3.50;1.33;;;8.70;65.70;;;;;;4992028;28;114484;-81
2024/01/03 08:30:44;;;;;;;3.08;1.30;;;8.70;65.60;;;;;;5002052;28;115265;-81
2024/01/03 08:33:11;;;;;;;1.95;0.90;;;8.70;65.60;;;;;;5007201;28;115223;-83
2024/01/03 08:35:39;;;;;;;2.35;1.20;;;8.70;65.40;;;;;;5009012;28;114871;-82
2024/01/03 08:38:07;;;;;;;2.83;1.10;;;8.70;65.40;;;;;;4996438;28;115099;-81
2024/01/03 08:40:38;;;;;;;2.92;0.93;;;8.70;65.40;;;;;;5015908;27;115128;-81
2024/01/03 08:43:05;;;;;;;2.28;1.00;;;8.70;65.30;;;;;;5017413;28;115127;-82
2024/01/03 08:45:33;;;;;;;1.67;0.70;;;8.80;65.30;;;;;;4999121;28;114499;-83
2024/01/03 08:48:03;;;;;;;2.22;0.93;;;8.80;65.10;;;;;;5017777;28;114710;-81
2024/01/03 08:50:30;;;;;;;2.97;1.35;;;8.80;65.20;;;;;;5032093;27;115366;-81
2024/01/03 08:52:59;;;;;;;6.35;2.42;;;8.90;65.00;;;;;;4991434;28;114723;-81
2024/01/03 08:55:26;;;;;;;6.68;2.30;;;8.90;65.00;;;;;;4950922;28;114545;-82
2024/01/03 08:57:56;;;;;;;3.55;1.60;;;8.90;64.90;;;;;;4986318;28;114841;-81
2024/01/03 09:00:24;;;;;;;6.32;2.13;;;8.90;64.80;;;;;;4999465;28;115060;-81
2024/01/03 09:02:51;;;;;;;5.68;1.92;;;9.00;64.90;;;;;;4986451;28;114545;-82
2024/01/03 09:05:22;;;;;;;4.22;1.90;;;9.00;64.80;;;;;;4967801;28;114462;-82
2024/01/03 09:07:49;;;;;;;3.78;1.60;;;9.00;64.90;;;;;;4982428;28;114514;-82
2024/01/03 09:10:17;;;;;;;4.78;2.38;;;9.00;64.80;;;;;;4980846;28;115229;-81
2024/01/03 09:12:45;;;;;;;5.28;2.30;;;9.00;64.90;;;;;;4990060;28;115475;-83
2024/01/03 09:15:17;;;;;;;3.42;1.40;;;9.00;64.80;;;;;;5012396;28;114738;-83
2024/01/03 09:17:44;;;;;;;3.50;1.70;;;9.00;64.80;;;;;;5015545;27;114552;-81
2024/01/03 09:20:12;;;;;;;3.38;1.70;;;9.00;64.70;;;;;;5012994;27;115241;-81
2024/01/03 09:22:39;;;;;;;3.85;1.60;;;9.10;64.70;;;;;;5011473;28;115079;-81
2024/01/03 09:25:07;;;;;;;3.70;2.00;;;9.10;64.60;;;;;;4999807;28;114836;-82
2024/01/03 09:27:37;;;;;;;3.15;1.40;;;9.10;64.50;;;;;;4997200;27;114735;-81
2024/01/03 09:30:06;;;;;;;3.15;1.50;;;9.10;64.50;;;;;;5003265;28;115098;-81
2024/01/03 09:32:34;;;;;;;7.72;3.28;;;9.10;64.40;;;;;;4987487;28;114619;-82
2024/01/03 09:35:01;;;;;;;3.65;2.00;;;9.00;64.40;;;;;;5003650;28;114587;-81
2024/01/03 09:37:30;;;;;;;2.22;1.20;;;9.10;64.40;;;;;;5003145;28;114947;-81
2024/01/03 09:39:57;;;;;;;2.72;1.40;;;9.00;64.30;;;;;;5009022;28;115784;-82
2024/01/03 09:42:25;;;;;;;5.88;1.30;;;9.00;64.20;;;;;;5009148;28;114786;-82
2024/01/03 09:44:52;;;;;;;3.45;1.63;;;9.00;64.20;;;;;;5003880;28;114253;-80
2024/01/03 09:47:20;;;;;;;3.35;1.60;;;9.00;64.10;;;;;;4990215;28;114612;-81
2024/01/03 09:49:48;;;;;;;3.58;1.50;;;9.10;64.10;;;;;;4982203;28;117139;-80
2024/01/03 09:52:15;;;;;;;3.13;1.40;;;9.10;63.90;;;;;;4985227;28;115192;-81
2024/01/03 09:54:42;;;;;;;3.38;1.33;;;9.10;63.90;;;;;;4997969;28;114586;-82
2024/01/03 09:57:10;;;;;;;3.20;1.38;;;9.10;63.90;;;;;;4996591;28;114649;-81
2024/01/03 09:59:37;;;;;;;3.67;1.70;;;9.10;63.90;;;;;;5009731;28;116172;-81
2024/01/03 10:02:06;;;;;;;3.25;1.45;;;9.10;63.70;;;;;;5011044;27;114664;-82
2024/01/03 10:04:37;;;;;;;3.22;1.38;;;9.20;63.70;;;;;;5008873;28;114391;-82
2024/01/03 10:07:04;;;;;;;3.53;1.40;;;9.10;63.70;;;;;;5012090;28;114634;-82
2024/01/03 10:09:44;;;;;;;4.40;1.50;;;9.00;63.60;;;;;;5014289;27;119250;-82
2024/01/03 10:12:18;;;;;;;2.60;1.50;;;9.10;63.60;;;;;;5003514;28;114822;-81
2024/01/03 10:14:46;;;;;;;4.50;1.50;;;9.10;63.70;;;;;;5000361;28;114957;-80
2024/01/03 10:17:14;;;;;;;2.30;1.17;;;9.10;63.60;;;;;;4987537;28;116472;-81
2024/01/03 10:19:41;;;;;;;3.10;1.40;;;9.00;63.60;;;;;;5006937;27;116939;-82
2024/01/03 10:22:09;;;;;;;2.85;1.17;;;9.10;63.60;;;;;;5008880;28;114544;-82
2024/01/03 10:24:42;;;;;;;2.55;1.20;;;9.10;63.50;;;;;;5010498;28;114375;-81
2024/01/03 10:27:11;;;;;;;2.78;1.30;;;9.10;63.30;;;;;;4987481;28;114663;-81
2024/01/03 10:29:39;;;;;;;3.20;1.30;;;9.10;63.40;;;;;;4966654;28;116415;-81
2024/01/03 10:32:10;;;;;;;5.30;1.20;;;9.10;63.30;;;;;;4984970;28;115788;-80
2024/01/03 10:34:37;;;;;;;2.70;1.20;;;9.10;63.30;;;;;;4985226;28;114481;-80
2024/01/03 10:37:05;;;;;;;4.05;1.13;;;9.10;63.20;;;;;;4985567;28;114717;-81
2024/01/03 10:39:32;;;;;;;2.65;1.08;;;9.20;63.10;;;;;;4985516;27;115170;-81
2024/01/03 10:42:01;;;;;;;4.82;1.55;;;9.20;62.90;;;;;;4992841;28;115401;-81
2024/01/03 10:44:29;;;;;;;4.43;1.35;;;9.20;62.90;;;;;;4966613;28;115018;-82
2024/01/03 10:46:57;;;;;;;5.93;2.10;;;9.20;62.90;;;;;;4983869;28;114810;-82
2024/01/03 10:49:27;;;;;;;3.75;1.40;;;9.20;63.00;;;;;;4983742;28;115116;-81
2024/01/03 10:52:03;;;;;;;3.97;1.73;;;9.20;62.90;;;;;;4982988;28;114723;-81
2024/01/03 10:54:40;;;;;;;3.55;1.45;;;9.20;62.80;;;;;;4983595;28;114577;-81
2024/01/03 10:57:08;;;;;;;3.08;1.55;;;9.20;62.70;;;;;;4983399;28;114556;-81
2024/01/03 10:59:40;;;;;;;2.70;1.23;;;9.20;62.70;;;;;;4967252;27;115099;-80
2024/01/03 11:02:31;;;;;;;4.13;1.70;;;9.20;62.60;;;;;;4987122;28;115259;-80
2024/01/03 11:05:28;;;;;;;2.88;1.30;;;9.20;62.50;;;;;;4979775;28;114511;-80
2024/01/03 11:08:02;;;;;;;4.50;1.48;;;9.20;62.50;;;;;;4989414;28;114487;-81
2024/01/03 11:10:53;;;;;;;;;;;9.20;62.50;;;;;;5003434;28;115221;-81
2024/01/03 11:13:32;;;;;;;6.63;1.60;;;9.20;62.90;;;;;;4986401;28;115080;-82
2024/01/03 11:16:02;;;;;;;5.72;2.00;;;9.20;62.80;;;;;;4985782;28;114488;-81
2024/01/03 11:18:41;;;;;;;3.72;1.67;;;9.20;62.70;;;;;;4996503;28;114463;-80
2024/01/03 11:21:28;;;;;;;4.20;1.50;;;9.20;62.40;;;;;;4989591;28;115043;-81
2024/01/03 11:23:56;;;;;;;4.57;2.17;;;9.20;62.30;;;;;;4987508;28;115500;-81
2024/01/03 11:26:52;;;;;;;3.20;1.40;;;9.20;62.40;;;;;;4985543;28;114541;-81
2024/01/03 11:29:35;;;;;;;4.03;1.20;;;9.20;62.30;;;;;;4989822;27;116390;-81
2024/01/03 11:32:06;;;;;;;3.47;1.27;;;9.20;62.20;;;;;;4994048;28;119192;-81
2024/01/03 11:34:40;;;;;;;3.45;1.30;;;9.20;62.20;;;;;;4987315;28;116765;-80
2024/01/03 11:37:19;;;;;;;3.43;1.30;;;9.30;62.10;;;;;;5009513;28;114548;-81
2024/01/03 11:39:51;;;;;;;4.55;1.67;;;9.30;62.10;;;;;;5006002;27;115260;-81
2024/01/03 11:42:37;;;;;;;3.28;1.30;;;9.30;62.10;;;;;;5012959;28;115617;-80
2024/01/03 11:45:12;;;;;;;5.78;2.00;;;9.40;62.00;;;;;;4987763;27;115093;-81
2024/01/03 11:47:47;;;;;;;4.10;1.80;;;9.40;61.90;;;;;;4980237;28;114992;-80
2024/01/03 11:50:16;;;;;;;4.40;1.85;;;9.40;61.90;;;;;;5026754;27;114513;-81
2024/01/03 11:52:48;;;;;;;5.05;2.33;;;9.40;61.90;;;;;;4991708;28;116276;-82
2024/01/03 11:55:20;;;;;;;4.32;2.05;;;9.40;61.90;;;;;;4979862;28;116599;-81
2024/01/03 11:57:48;;;;;;;5.43;2.95;;;9.40;62.00;;;;;;4972220;28;114288;-81
2024/01/03 12:00:23;;;;;;;4.15;2.38;;;9.40;61.90;;;;;;5004672;28;114752;-81
2024/01/03 12:02:54;;;;;;;6.55;2.75;;;9.40;62.00;;;;;;4988401;28;115841;-81
2024/01/03 12:05:24;;;;;;;7.85;3.42;;;9.40;62.10;;;;;;5002781;27;115254;-82
2024/01/03 12:07:56;;;;;;;7.28;3.13;;;9.50;61.90;;;;;;4995686;28;114618;-81
2024/01/03 12:10:24;;;;;;;4.40;2.10;;;9.40;61.80;;;;;;4967811;28;114947;-81
2024/01/03 12:12:52;;;;;;;3.67;2.00;;;9.40;61.80;;;;;;4984581;28;115242;-81
2024/01/03 12:15:27;;;;;;;4.13;2.00;;;9.40;61.90;;;;;;4998971;28;114598;-81
2024/01/03 12:18:06;;;;;;;4.30;2.00;;;9.40;62.00;;;;;;5021229;28;114425;-81
2024/01/03 12:20:34;;;;;;;4.97;2.20;;;9.40;61.80;;;;;;5040347;28;114862;-81
2024/01/03 12:23:13;;;;;;;4.60;2.22;;;9.30;61.90;;;;;;5008704;28;117220;-82
2024/01/03 12:25:42;;;;;;;5.35;2.25;;;9.40;61.90;;;;;;5003820;28;114778;-81
2024/01/03 12:28:17;;;;;;;5.90;2.42;;;9.30;61.90;;;;;;5004210;28;115748;-81
2024/01/03 12:30:45;;;;;;;;;;;9.30;61.90;;;;;;4988034;28;114605;-81
2024/01/03 12:33:15;;;;;;;7.45;2.08;;;9.20;62.20;;;;;;5005237;28;115728;-81
2024/01/03 12:35:53;;;;;;;5.88;2.10;;;9.20;62.20;;;;;;5003576;28;116787;-81
2024/01/03 12:38:24;;;;;;;6.50;1.80;;;9.20;62.10;;;;;;5004012;28;114756;-83
2024/01/03 12:40:51;;;;;;;4.07;1.80;;;9.20;62.20;;;;;;5003829;28;117146;-81
2024/01/03 12:43:26;;;;;;;6.65;2.35;;;9.20;62.30;;;;;;4983599;28;115173;-81
2024/01/03 12:45:57;;;;;;;3.28;1.55;;;9.30;62.60;;;;;;4983125;28;115005;-80
2024/01/03 12:48:24;;;;;;;6.38;3.03;;;9.20;62.90;;;;;;4979193;28;114480;-81
2024/01/03 12:50:54;;;;;;;6.82;2.63;;;9.30;63.20;;;;;;4985914;27;114357;-82
2024/01/03 12:53:22;;;;;;;4.80;2.63;;;9.30;63.30;;;;;;4984328;28;115233;-80
2024/01/03 12:55:49;;;;;;;8.77;3.95;;;9.20;63.30;;;;;;5017835;27;115617;-81
2024/01/03 12:58:17;;;;;;;15.23;5.72;;;9.20;63.50;;;;;;5012702;28;114680;-80